sensor_id;sensor_type;location;lat;lon;timestamp;pressure;altitude;pressure_sealevel;temperature;humidity
41830;BME280;38614;43.472;23.936;2023-05-12T00:02:18;100482.94;;;11.32;100.00
41830;BME280;38614;43.472;23.936;2023-05-12T00:05:06;100501.94;;;11.34;100.00
41830;BME280;38614;43.472;23.936;2023-05-12T00:07:54;100509.28;;;11.58;100.00
41830;BME280;38614;43.472;23.936;2023-05-12T00:10:42;100505.69;;;11.41;100.00
41830;BME280;38614;43.472;23.936;2023-05-12T00:13:30;100486.31;;;11.26;100.00
41830;BME280;38614;43.472;23.936;2023-05-12T00:16:17;100504.47;;;11.39;100.00
41830;BME280;38614;43.472;23.936;2023-05-12T00:19:05;100473.63;;;11.09;100.00
41830;BME280;38614;43.472;23.936;2023-05-12T00:21:53;100485.44;;;11.22;100.00
41830;BME280;38614;43.472;23.936;2023-05-12T00:24:41;100490.34;;;11.28;100.00
41830;BME280;38614;43.472;23.936;2023-05-12T00:27:28;100478.91;;;11.14;100.00
41830;BME280;38614;43.472;23.936;2023-05-12T00:30:18;100493.97;;;11.17;100.00
41830;BME280;38614;43.472;23.936;2023-05-12T00:33:06;100456.44;;;10.88;100.00
41830;BME280;38614;43.472;23.936;2023-05-12T00:35:56;100506.03;;;11.24;100.00
41830;BME280;38614;43.472;23.936;2023-05-12T00:38:47;100506.03;;;11.24;100.00
41830;BME280;38614;43.472;23.936;2023-05-12T00:41:34;100494.81;;;11.17;100.00
41830;BME280;38614;43.472;23.936;2023-05-12T00:44:22;100486.56;;;11.05;100.00
41830;BME280;38614;43.472;23.936;2023-05-12T00:47:10;100491.94;;;11.13;100.00
41830;BME280;38614;43.472;23.936;2023-05-12T00:50:01;100509.16;;;11.23;100.00
41830;BME280;38614;43.472;23.936;2023-05-12T00:52:50;100509.22;;;11.10;100.00
41830;BME280;38614;43.472;23.936;2023-05-12T00:55:39;100506.81;;;11.09;100.00
41830;BME280;38614;43.472;23.936;2023-05-12T00:58:27;100510.78;;;10.96;100.00
41830;BME280;38614;43.472;23.936;2023-05-12T01:01:15;100514.13;;;11.01;100.00
41830;BME280;38614;43.472;23.936;2023-05-12T01:04:04;100478.94;;;10.86;100.00
41830;BME280;38614;43.472;23.936;2023-05-12T01:06:57;100478.06;;;10.70;100.00
41830;BME280;38614;43.472;23.936;2023-05-12T01:09:46;100480.53;;;10.87;100.00
41830;BME280;38614;43.472;23.936;2023-05-12T01:12:34;100516.31;;;10.96;100.00
41830;BME280;38614;43.472;23.936;2023-05-12T01:15:22;100506.50;;;10.82;100.00
41830;BME280;38614;43.472;23.936;2023-05-12T01:18:10;100519.94;;;10.84;100.00
41830;BME280;38614;43.472;23.936;2023-05-12T01:20:59;100510.09;;;10.71;100.00
41830;BME280;38614;43.472;23.936;2023-05-12T01:23:58;100498.13;;;10.67;100.00
41830;BME280;38614;43.472;23.936;2023-05-12T01:26:49;100512.94;;;10.46;100.00
41830;BME280;38614;43.472;23.936;2023-05-12T01:29:37;100482.72;;;10.25;100.00
41830;BME280;38614;43.472;23.936;2023-05-12T01:32:25;100513.59;;;10.55;100.00
41830;BME280;38614;43.472;23.936;2023-05-12T01:35:13;100509.72;;;10.32;100.00
41830;BME280;38614;43.472;23.936;2023-05-12T01:38:07;100523.22;;;10.34;100.00
41830;BME280;38614;43.472;23.936;2023-05-12T01:40:58;100510.66;;;10.12;100.00
41830;BME280;38614;43.472;23.936;2023-05-12T01:43:45;100507.09;;;10.11;100.00
41830;BME280;38614;43.472;23.936;2023-05-12T01:46:34;100507.81;;;9.96;100.00
41830;BME280;38614;43.472;23.936;2023-05-12T01:49:23;100509.06;;;9.98;100.00
41830;BME280;38614;43.472;23.936;2023-05-12T01:52:11;100509.06;;;9.86;100.00
41830;BME280;38614;43.472;23.936;2023-05-12T01:54:59;100512.97;;;9.85;100.00
41830;BME280;38614;43.472;23.936;2023-05-12T01:57:51;100521.50;;;9.92;100.00
41830;BME280;38614;43.472;23.936;2023-05-12T02:00:39;100514.72;;;9.90;100.00
41830;BME280;38614;43.472;23.936;2023-05-12T02:03:33;100528.16;;;9.91;100.00
41830;BME280;38614;43.472;23.936;2023-05-12T02:06:20;100519.28;;;9.86;100.00
41830;BME280;38614;43.472;23.936;2023-05-12T02:09:10;100509.88;;;9.75;100.00
41830;BME280;38614;43.472;23.936;2023-05-12T02:11:58;100516.69;;;9.77;100.00
41830;BME280;38614;43.472;23.936;2023-05-12T02:14:48;100501.59;;;9.75;100.00
41830;BME280;38614;43.472;23.936;2023-05-12T02:17:36;100522.31;;;9.81;100.00
41830;BME280;38614;43.472;23.936;2023-05-12T02:20:27;100515.84;;;9.64;100.00
41830;BME280;38614;43.472;23.936;2023-05-12T02:23:16;100516.41;;;9.58;100.00
41830;BME280;38614;43.472;23.936;2023-05-12T02:26:03;100530.47;;;9.77;100.00
41830;BME280;38614;43.472;23.936;2023-05-12T02:28:51;100537.34;;;9.83;100.00
41830;BME280;38614;43.472;23.936;2023-05-12T02:31:41;100544.84;;;9.83;100.00
41830;BME280;38614;43.472;23.936;2023-05-12T02:34:35;100523.66;;;9.62;100.00
41830;BME280;38614;43.472;23.936;2023-05-12T02:37:23;100533.00;;;9.70;100.00
41830;BME280;38614;43.472;23.936;2023-05-12T02:40:11;100510.44;;;9.56;100.00
41830;BME280;38614;43.472;23.936;2023-05-12T02:43:00;100543.44;;;9.77;100.00
41830;BME280;38614;43.472;23.936;2023-05-12T02:45:48;100544.94;;;9.74;100.00
41830;BME280;38614;43.472;23.936;2023-05-12T02:48:36;100543.69;;;9.84;100.00
41830;BME280;38614;43.472;23.936;2023-05-12T02:51:23;100552.88;;;9.76;100.00
41830;BME280;38614;43.472;23.936;2023-05-12T02:54:11;100558.63;;;9.70;100.00
41830;BME280;38614;43.472;23.936;2023-05-12T02:57:03;100563.81;;;9.72;100.00
41830;BME280;38614;43.472;23.936;2023-05-12T02:59:51;100555.88;;;9.70;100.00
41830;BME280;38614;43.472;23.936;2023-05-12T03:02:39;100558.38;;;9.76;100.00
41830;BME280;38614;43.472;23.936;2023-05-12T03:05:27;100565.66;;;9.68;100.00
41830;BME280;38614;43.472;23.936;2023-05-12T03:08:15;100566.66;;;9.63;100.00
41830;BME280;38614;43.472;23.936;2023-05-12T03:11:03;100547.38;;;9.30;100.00
41830;BME280;38614;43.472;23.936;2023-05-12T03:13:51;100566.03;;;9.46;100.00
41830;BME280;38614;43.472;23.936;2023-05-12T03:16:39;100533.59;;;9.30;100.00
41830;BME280;38614;43.472;23.936;2023-05-12T03:19:27;100571.81;;;9.53;100.00
41830;BME280;38614;43.472;23.936;2023-05-12T03:22:17;100558.94;;;9.45;100.00
41830;BME280;38614;43.472;23.936;2023-05-12T03:25:08;100565.34;;;9.49;100.00
41830;BME280;38614;43.472;23.936;2023-05-12T03:27:56;100572.91;;;9.39;100.00
41830;BME280;38614;43.472;23.936;2023-05-12T03:30:47;100584.38;;;9.29;100.00
41830;BME280;38614;43.472;23.936;2023-05-12T03:33:35;100585.78;;;9.35;100.00
41830;BME280;38614;43.472;23.936;2023-05-12T03:36:25;100590.16;;;9.36;100.00
41830;BME280;38614;43.472;23.936;2023-05-12T03:39:13;100573.63;;;9.36;100.00
41830;BME280;38614;43.472;23.936;2023-05-12T03:42:01;100592.38;;;9.43;100.00
41830;BME280;38614;43.472;23.936;2023-05-12T03:44:52;100607.66;;;9.40;100.00
41830;BME280;38614;43.472;23.936;2023-05-12T03:47:41;100590.06;;;9.45;100.00
41830;BME280;38614;43.472;23.936;2023-05-12T03:50:32;100603.97;;;9.49;100.00
41830;BME280;38614;43.472;23.936;2023-05-12T03:53:20;100595.00;;;9.39;100.00
41830;BME280;38614;43.472;23.936;2023-05-12T03:56:08;100577.69;;;9.18;100.00
41830;BME280;38614;43.472;23.936;2023-05-12T03:58:56;100618.09;;;9.35;100.00
41830;BME280;38614;43.472;23.936;2023-05-12T04:01:44;100602.78;;;9.25;100.00
41830;BME280;38614;43.472;23.936;2023-05-12T04:04:31;100619.81;;;9.39;100.00
41830;BME280;38614;43.472;23.936;2023-05-12T04:07:25;100622.25;;;9.41;100.00
41830;BME280;38614;43.472;23.936;2023-05-12T04:10:15;100632.72;;;9.48;100.00
41830;BME280;38614;43.472;23.936;2023-05-12T04:13:02;100620.31;;;9.41;100.00
41830;BME280;38614;43.472;23.936;2023-05-12T04:15:50;100594.25;;;9.30;100.00
41830;BME280;38614;43.472;23.936;2023-05-12T04:18:43;100606.63;;;9.45;100.00
41830;BME280;38614;43.472;23.936;2023-05-12T04:21:31;100614.22;;;9.48;100.00
41830;BME280;38614;43.472;23.936;2023-05-12T04:24:19;100636.56;;;9.67;100.00
41830;BME280;38614;43.472;23.936;2023-05-12T04:27:07;100639.00;;;9.69;100.00
41830;BME280;38614;43.472;23.936;2023-05-12T04:29:54;100634.50;;;9.64;100.00
41830;BME280;38614;43.472;23.936;2023-05-12T04:32:43;100642.31;;;9.62;100.00
41830;BME280;38614;43.472;23.936;2023-05-12T04:35:30;100618.81;;;9.44;100.00
41830;BME280;38614;43.472;23.936;2023-05-12T04:38:18;100617.13;;;9.52;100.00
41830;BME280;38614;43.472;23.936;2023-05-12T04:41:06;100639.22;;;9.64;100.00
41830;BME280;38614;43.472;23.936;2023-05-12T04:43:54;100647.03;;;9.62;100.00
41830;BME280;38614;43.472;23.936;2023-05-12T04:46:45;100620.97;;;9.38;100.00
41830;BME280;38614;43.472;23.936;2023-05-12T04:49:33;100624.59;;;9.30;100.00
41830;BME280;38614;43.472;23.936;2023-05-12T04:52:21;100652.41;;;9.58;100.00
41830;BME280;38614;43.472;23.936;2023-05-12T04:55:11;100577.84;;;9.01;100.00
41830;BME280;38614;43.472;23.936;2023-05-12T04:57:59;100639.72;;;9.45;100.00
41830;BME280;38614;43.472;23.936;2023-05-12T05:00:46;100654.59;;;9.53;100.00
41830;BME280;38614;43.472;23.936;2023-05-12T05:03:34;100649.34;;;9.39;100.00
41830;BME280;38614;43.472;23.936;2023-05-12T05:06:22;100629.66;;;9.28;100.00
41830;BME280;38614;43.472;23.936;2023-05-12T05:09:10;100656.09;;;9.50;100.00
41830;BME280;38614;43.472;23.936;2023-05-12T05:11:58;100662.44;;;9.63;100.00
41830;BME280;38614;43.472;23.936;2023-05-12T05:14:45;100655.22;;;9.70;100.00
41830;BME280;38614;43.472;23.936;2023-05-12T05:17:33;100659.00;;;9.66;100.00
41830;BME280;38614;43.472;23.936;2023-05-12T05:20:21;100666.44;;;9.53;100.00
41830;BME280;38614;43.472;23.936;2023-05-12T05:23:15;100638.66;;;9.37;100.00
41830;BME280;38614;43.472;23.936;2023-05-12T05:26:03;100646.66;;;9.51;100.00
41830;BME280;38614;43.472;23.936;2023-05-12T05:28:51;100677.28;;;9.70;100.00
41830;BME280;38614;43.472;23.936;2023-05-12T05:31:43;100657.25;;;9.61;100.00
41830;BME280;38614;43.472;23.936;2023-05-12T05:34:32;100638.94;;;9.57;100.00
41830;BME280;38614;43.472;23.936;2023-05-12T05:37:20;100668.78;;;9.76;100.00
41830;BME280;38614;43.472;23.936;2023-05-12T05:40:08;100667.97;;;9.75;100.00
41830;BME280;38614;43.472;23.936;2023-05-12T05:42:55;100672.16;;;9.81;100.00
41830;BME280;38614;43.472;23.936;2023-05-12T05:45:43;100673.56;;;9.99;100.00
41830;BME280;38614;43.472;23.936;2023-05-12T05:48:31;100627.28;;;9.72;100.00
41830;BME280;38614;43.472;23.936;2023-05-12T05:51:19;100681.78;;;10.20;100.00
41830;BME280;38614;43.472;23.936;2023-05-12T05:54:07;100649.53;;;10.12;100.00
41830;BME280;38614;43.472;23.936;2023-05-12T05:56:55;100671.06;;;10.19;100.00
41830;BME280;38614;43.472;23.936;2023-05-12T05:59:43;100685.41;;;10.45;100.00
41830;BME280;38614;43.472;23.936;2023-05-12T06:02:31;100689.06;;;10.37;100.00
41830;BME280;38614;43.472;23.936;2023-05-12T06:05:20;100682.38;;;10.38;100.00
41830;BME280;38614;43.472;23.936;2023-05-12T06:08:08;100689.41;;;10.48;100.00
41830;BME280;38614;43.472;23.936;2023-05-12T06:10:59;100682.88;;;10.52;100.00
41830;BME280;38614;43.472;23.936;2023-05-12T06:13:47;100661.34;;;10.34;100.00
41830;BME280;38614;43.472;23.936;2023-05-12T06:16:35;100695.41;;;10.50;100.00
41830;BME280;38614;43.472;23.936;2023-05-12T06:19:23;100684.91;;;10.31;100.00
41830;BME280;38614;43.472;23.936;2023-05-12T06:22:10;100695.75;;;10.48;100.00
41830;BME280;38614;43.472;23.936;2023-05-12T06:24:58;100694.25;;;10.51;100.00
41830;BME280;38614;43.472;23.936;2023-05-12T06:27:46;100663.16;;;10.42;100.00
41830;BME280;38614;43.472;23.936;2023-05-12T06:30:34;100693.22;;;10.68;100.00
41830;BME280;38614;43.472;23.936;2023-05-12T06:33:21;100694.03;;;10.80;100.00
41830;BME280;38614;43.472;23.936;2023-05-12T06:36:09;100659.13;;;10.64;100.00
41830;BME280;38614;43.472;23.936;2023-05-12T06:38:58;100698.97;;;10.75;100.00
41830;BME280;38614;43.472;23.936;2023-05-12T06:41:46;100704.13;;;10.89;100.00
41830;BME280;38614;43.472;23.936;2023-05-12T06:44:39;100682.28;;;10.71;100.00
41830;BME280;38614;43.472;23.936;2023-05-12T06:47:28;100700.31;;;11.05;100.00
41830;BME280;38614;43.472;23.936;2023-05-12T06:50:16;100685.03;;;10.83;100.00
41830;BME280;38614;43.472;23.936;2023-05-12T06:53:04;100672.47;;;10.86;100.00
41830;BME280;38614;43.472;23.936;2023-05-12T06:55:54;100699.91;;;11.31;100.00
41830;BME280;38614;43.472;23.936;2023-05-12T06:58:43;100685.03;;;11.64;100.00
41830;BME280;38614;43.472;23.936;2023-05-12T07:01:31;100707.50;;;11.62;100.00
41830;BME280;38614;43.472;23.936;2023-05-12T07:04:19;100707.13;;;11.48;100.00
41830;BME280;38614;43.472;23.936;2023-05-12T07:07:07;100714.66;;;11.35;100.00
41830;BME280;38614;43.472;23.936;2023-05-12T07:09:55;100724.88;;;11.47;100.00
41830;BME280;38614;43.472;23.936;2023-05-12T07:12:43;100709.13;;;11.35;100.00
41830;BME280;38614;43.472;23.936;2023-05-12T07:15:31;100709.75;;;11.45;100.00
41830;BME280;38614;43.472;23.936;2023-05-12T07:18:19;100701.88;;;11.31;100.00
41830;BME280;38614;43.472;23.936;2023-05-12T07:21:07;100717.31;;;11.32;100.00
41830;BME280;38614;43.472;23.936;2023-05-12T07:23:55;100703.81;;;11.30;100.00
41830;BME280;38614;43.472;23.936;2023-05-12T07:26:42;100694.78;;;11.46;100.00
41830;BME280;38614;43.472;23.936;2023-05-12T07:29:30;100720.03;;;11.44;100.00
41830;BME280;38614;43.472;23.936;2023-05-12T07:32:18;100689.41;;;11.25;100.00
41830;BME280;38614;43.472;23.936;2023-05-12T07:35:06;100719.22;;;11.43;100.00
41830;BME280;38614;43.472;23.936;2023-05-12T07:37:54;100724.66;;;11.40;100.00
41830;BME280;38614;43.472;23.936;2023-05-12T07:40:42;100707.47;;;11.47;100.00
41830;BME280;38614;43.472;23.936;2023-05-12T07:43:31;100685.88;;;11.52;100.00
41830;BME280;38614;43.472;23.936;2023-05-12T07:46:18;100692.09;;;11.77;100.00
41830;BME280;38614;43.472;23.936;2023-05-12T07:49:06;100727.41;;;11.80;100.00
41830;BME280;38614;43.472;23.936;2023-05-12T07:51:53;100714.06;;;11.82;100.00
41830;BME280;38614;43.472;23.936;2023-05-12T07:54:41;100702.03;;;11.78;100.00
41830;BME280;38614;43.472;23.936;2023-05-12T07:57:29;100724.03;;;11.87;100.00
41830;BME280;38614;43.472;23.936;2023-05-12T08:00:17;100722.72;;;11.96;100.00
41830;BME280;38614;43.472;23.936;2023-05-12T08:03:05;100651.31;;;11.46;100.00
41830;BME280;38614;43.472;23.936;2023-05-12T08:05:54;100709.75;;;11.85;100.00
41830;BME280;38614;43.472;23.936;2023-05-12T08:08:41;100718.72;;;11.94;100.00
41830;BME280;38614;43.472;23.936;2023-05-12T08:11:30;100687.44;;;11.65;100.00
41830;BME280;38614;43.472;23.936;2023-05-12T08:14:17;100709.47;;;11.90;100.00
41830;BME280;38614;43.472;23.936;2023-05-12T08:17:05;100720.88;;;12.01;100.00
41830;BME280;38614;43.472;23.936;2023-05-12T08:19:53;100721.38;;;11.90;100.00
41830;BME280;38614;43.472;23.936;2023-05-12T08:22:41;100724.34;;;11.97;100.00
41830;BME280;38614;43.472;23.936;2023-05-12T08:25:30;100734.72;;;12.16;100.00
41830;BME280;38614;43.472;23.936;2023-05-12T08:28:18;100738.88;;;12.22;100.00
41830;BME280;38614;43.472;23.936;2023-05-12T08:31:05;100741.00;;;12.13;100.00
41830;BME280;38614;43.472;23.936;2023-05-12T08:33:53;100740.28;;;12.16;100.00
41830;BME280;38614;43.472;23.936;2023-05-12T08:36:55;100746.66;;;12.33;100.00
41830;BME280;38614;43.472;23.936;2023-05-12T08:39:43;100740.56;;;12.27;100.00
41830;BME280;38614;43.472;23.936;2023-05-12T08:42:39;100722.31;;;12.10;100.00
41830;BME280;38614;43.472;23.936;2023-05-12T08:45:29;100719.19;;;12.43;100.00
41830;BME280;38614;43.472;23.936;2023-05-12T08:48:17;100734.06;;;12.51;100.00
41830;BME280;38614;43.472;23.936;2023-05-12T08:51:08;100725.00;;;12.54;100.00
41830;BME280;38614;43.472;23.936;2023-05-12T08:54:02;100748.63;;;12.64;100.00
41830;BME280;38614;43.472;23.936;2023-05-12T08:56:51;100705.97;;;12.52;100.00
41830;BME280;38614;43.472;23.936;2023-05-12T08:59:44;100730.28;;;12.59;100.00
41830;BME280;38614;43.472;23.936;2023-05-12T09:02:33;100732.34;;;12.78;100.00
41830;BME280;38614;43.472;23.936;2023-05-12T09:05:39;100741.31;;;13.06;100.00
41830;BME280;38614;43.472;23.936;2023-05-12T09:08:28;100744.13;;;13.42;100.00
41830;BME280;38614;43.472;23.936;2023-05-12T09:11:19;100738.09;;;13.39;100.00
41830;BME280;38614;43.472;23.936;2023-05-12T09:14:16;100719.56;;;13.44;100.00
41830;BME280;38614;43.472;23.936;2023-05-12T09:17:05;100740.03;;;13.55;100.00
41830;BME280;38614;43.472;23.936;2023-05-12T09:19:53;100741.78;;;13.63;100.00
41830;BME280;38614;43.472;23.936;2023-05-12T09:22:41;100734.03;;;13.33;100.00
41830;BME280;38614;43.472;23.936;2023-05-12T09:25:29;100734.91;;;13.57;100.00
41830;BME280;38614;43.472;23.936;2023-05-12T09:28:16;100729.88;;;13.62;100.00
41830;BME280;38614;43.472;23.936;2023-05-12T09:31:17;100740.81;;;13.94;100.00
41830;BME280;38614;43.472;23.936;2023-05-12T09:34:08;100739.38;;;13.81;100.00
41830;BME280;38614;43.472;23.936;2023-05-12T09:36:56;100747.34;;;13.63;100.00
41830;BME280;38614;43.472;23.936;2023-05-12T09:39:44;100725.56;;;13.65;100.00
41830;BME280;38614;43.472;23.936;2023-05-12T09:42:33;100741.63;;;13.94;100.00
41830;BME280;38614;43.472;23.936;2023-05-12T09:45:22;100740.94;;;13.78;100.00
41830;BME280;38614;43.472;23.936;2023-05-12T09:48:11;100746.16;;;14.03;100.00
41830;BME280;38614;43.472;23.936;2023-05-12T09:51:00;100728.75;;;13.86;100.00
41830;BME280;38614;43.472;23.936;2023-05-12T09:53:48;100711.09;;;13.75;100.00
41830;BME280;38614;43.472;23.936;2023-05-12T09:56:36;100724.44;;;14.08;100.00
41830;BME280;38614;43.472;23.936;2023-05-12T09:59:34;100721.38;;;13.94;100.00
41830;BME280;38614;43.472;23.936;2023-05-12T10:02:26;100712.69;;;14.41;100.00
41830;BME280;38614;43.472;23.936;2023-05-12T10:05:17;100722.91;;;14.57;100.00
41830;BME280;38614;43.472;23.936;2023-05-12T10:08:06;100716.03;;;14.73;100.00
41830;BME280;38614;43.472;23.936;2023-05-12T10:10:55;100714.31;;;14.65;100.00
41830;BME280;38614;43.472;23.936;2023-05-12T10:13:46;100719.41;;;14.86;100.00
41830;BME280;38614;43.472;23.936;2023-05-12T10:16:35;100719.91;;;14.92;100.00
41830;BME280;38614;43.472;23.936;2023-05-12T10:19:24;100718.31;;;14.91;100.00
41830;BME280;38614;43.472;23.936;2023-05-12T10:22:14;100716.06;;;15.00;100.00
41830;BME280;38614;43.472;23.936;2023-05-12T10:25:03;100690.41;;;15.14;100.00
41830;BME280;38614;43.472;23.936;2023-05-12T10:27:54;100713.84;;;15.13;100.00
41830;BME280;38614;43.472;23.936;2023-05-12T10:30:42;100717.91;;;15.19;100.00
41830;BME280;38614;43.472;23.936;2023-05-12T10:33:31;100695.97;;;15.14;100.00
41830;BME280;38614;43.472;23.936;2023-05-12T10:36:19;100709.22;;;15.24;100.00
41830;BME280;38614;43.472;23.936;2023-05-12T10:39:06;100666.91;;;15.11;100.00
41830;BME280;38614;43.472;23.936;2023-05-12T10:42:08;100701.16;;;15.45;100.00
41830;BME280;38614;43.472;23.936;2023-05-12T10:44:56;100706.06;;;15.55;100.00
41830;BME280;38614;43.472;23.936;2023-05-12T10:47:44;100703.94;;;15.15;100.00
41830;BME280;38614;43.472;23.936;2023-05-12T10:50:33;100709.06;;;15.43;100.00
41830;BME280;38614;43.472;23.936;2023-05-12T10:53:43;100704.28;;;15.40;100.00
41830;BME280;38614;43.472;23.936;2023-05-12T10:59:25;100702.22;;;15.63;100.00
41830;BME280;38614;43.472;23.936;2023-05-12T11:02:15;100707.25;;;15.54;100.00
41830;BME280;38614;43.472;23.936;2023-05-12T11:05:09;100685.47;;;15.33;100.00
41830;BME280;38614;43.472;23.936;2023-05-12T11:08:00;100710.66;;;15.40;100.00
41830;BME280;38614;43.472;23.936;2023-05-12T11:10:49;100683.75;;;15.22;100.00
41830;BME280;38614;43.472;23.936;2023-05-12T11:13:37;100707.03;;;15.36;100.00
41830;BME280;38614;43.472;23.936;2023-05-12T11:16:25;100697.41;;;15.34;100.00
41830;BME280;38614;43.472;23.936;2023-05-12T11:19:13;100698.03;;;15.50;100.00
41830;BME280;38614;43.472;23.936;2023-05-12T11:22:05;100710.69;;;15.74;100.00
41830;BME280;38614;43.472;23.936;2023-05-12T11:24:53;100710.72;;;15.78;100.00
41830;BME280;38614;43.472;23.936;2023-05-12T11:27:45;100684.69;;;15.63;100.00
41830;BME280;38614;43.472;23.936;2023-05-12T11:30:33;100710.84;;;15.88;100.00
41830;BME280;38614;43.472;23.936;2023-05-12T11:33:21;100707.44;;;15.68;100.00
41830;BME280;38614;43.472;23.936;2023-05-12T11:36:09;100691.44;;;15.62;100.00
41830;BME280;38614;43.472;23.936;2023-05-12T11:38:57;100702.25;;;15.67;100.00
41830;BME280;38614;43.472;23.936;2023-05-12T11:41:45;100707.34;;;15.95;100.00
41830;BME280;38614;43.472;23.936;2023-05-12T11:44:33;100697.88;;;16.03;100.00
41830;BME280;38614;43.472;23.936;2023-05-12T11:47:21;100702.28;;;16.08;100.00
41830;BME280;38614;43.472;23.936;2023-05-12T11:50:09;100698.31;;;16.09;100.00
41830;BME280;38614;43.472;23.936;2023-05-12T11:52:57;100665.94;;;15.97;100.00
41830;BME280;38614;43.472;23.936;2023-05-12T11:55:52;100698.00;;;16.17;100.00
41830;BME280;38614;43.472;23.936;2023-05-12T11:58:51;100701.22;;;16.19;100.00
41830;BME280;38614;43.472;23.936;2023-05-12T12:01:59;100697.25;;;16.20;100.00
41830;BME280;38614;43.472;23.936;2023-05-12T12:04:48;100696.97;;;15.92;100.00
41830;BME280;38614;43.472;23.936;2023-05-12T12:07:36;100672.63;;;15.89;100.00
41830;BME280;38614;43.472;23.936;2023-05-12T12:10:24;100681.47;;;15.98;100.00
41830;BME280;38614;43.472;23.936;2023-05-12T12:13:12;100700.28;;;16.08;100.00
41830;BME280;38614;43.472;23.936;2023-05-12T12:16:06;100657.69;;;16.08;100.00
41830;BME280;38614;43.472;23.936;2023-05-12T12:18:54;100701.41;;;16.41;100.00
41830;BME280;38614;43.472;23.936;2023-05-12T12:21:42;100697.03;;;16.43;100.00
41830;BME280;38614;43.472;23.936;2023-05-12T12:24:29;100669.06;;;16.29;100.00
41830;BME280;38614;43.472;23.936;2023-05-12T12:27:17;100690.69;;;16.46;100.00
41830;BME280;38614;43.472;23.936;2023-05-12T12:30:05;100674.06;;;16.13;100.00
41830;BME280;38614;43.472;23.936;2023-05-12T12:32:53;100659.97;;;15.99;100.00
41830;BME280;38614;43.472;23.936;2023-05-12T12:35:41;100684.13;;;16.24;100.00
41830;BME280;38614;43.472;23.936;2023-05-12T12:38:29;100675.34;;;16.22;100.00
41830;BME280;38614;43.472;23.936;2023-05-12T12:41:17;100687.41;;;16.34;99.90
41830;BME280;38614;43.472;23.936;2023-05-12T12:44:04;100661.72;;;16.14;99.33
41830;BME280;38614;43.472;23.936;2023-05-12T12:46:52;100665.81;;;16.23;98.86
41830;BME280;38614;43.472;23.936;2023-05-12T12:49:40;100667.16;;;16.44;100.00
41830;BME280;38614;43.472;23.936;2023-05-12T12:52:27;100675.94;;;16.46;100.00
41830;BME280;38614;43.472;23.936;2023-05-12T12:55:15;100655.53;;;16.35;99.24
41830;BME280;38614;43.472;23.936;2023-05-12T12:58:03;100671.59;;;16.48;100.00
41830;BME280;38614;43.472;23.936;2023-05-12T13:00:51;100662.59;;;16.21;98.89
41830;BME280;38614;43.472;23.936;2023-05-12T13:03:38;100656.56;;;16.16;100.00
41830;BME280;38614;43.472;23.936;2023-05-12T13:06:27;100682.69;;;16.41;100.00
41830;BME280;38614;43.472;23.936;2023-05-12T13:09:15;100661.34;;;16.15;99.33
41830;BME280;38614;43.472;23.936;2023-05-12T13:12:06;100662.53;;;16.14;100.00
41830;BME280;38614;43.472;23.936;2023-05-12T13:14:54;100670.91;;;16.14;96.16
41830;BME280;38614;43.472;23.936;2023-05-12T13:17:41;100662.28;;;15.89;99.80
41830;BME280;38614;43.472;23.936;2023-05-12T13:20:29;100674.38;;;16.04;100.00
41830;BME280;38614;43.472;23.936;2023-05-12T13:23:17;100628.31;;;15.77;99.66
41830;BME280;38614;43.472;23.936;2023-05-12T13:26:05;100659.47;;;15.86;100.00
41830;BME280;38614;43.472;23.936;2023-05-12T13:28:52;100675.09;;;15.94;100.00
41830;BME280;38614;43.472;23.936;2023-05-12T13:31:40;100663.97;;;15.98;100.00
41830;BME280;38614;43.472;23.936;2023-05-12T13:34:29;100622.59;;;15.62;100.00
41830;BME280;38614;43.472;23.936;2023-05-12T13:37:17;100672.53;;;15.82;100.00
41830;BME280;38614;43.472;23.936;2023-05-12T13:40:05;100648.66;;;15.81;99.71
41830;BME280;38614;43.472;23.936;2023-05-12T13:42:53;100643.16;;;15.88;100.00
41830;BME280;38614;43.472;23.936;2023-05-12T13:45:41;100658.38;;;15.98;100.00
41830;BME280;38614;43.472;23.936;2023-05-12T13:48:29;100629.84;;;15.71;100.00
41830;BME280;38614;43.472;23.936;2023-05-12T13:51:17;100645.94;;;15.88;100.00
41830;BME280;38614;43.472;23.936;2023-05-12T13:54:06;100658.78;;;16.00;100.00
41830;BME280;38614;43.472;23.936;2023-05-12T13:56:53;100632.88;;;15.95;100.00
41830;BME280;38614;43.472;23.936;2023-05-12T13:59:41;100652.81;;;15.98;100.00
41830;BME280;38614;43.472;23.936;2023-05-12T14:02:47;100628.88;;;15.93;100.00
41830;BME280;38614;43.472;23.936;2023-05-12T14:05:35;100648.19;;;16.12;100.00
41830;BME280;38614;43.472;23.936;2023-05-12T14:08:23;100635.44;;;16.15;100.00
41830;BME280;38614;43.472;23.936;2023-05-12T14:11:10;100642.63;;;16.16;99.85
41830;BME280;38614;43.472;23.936;2023-05-12T14:13:58;100611.16;;;16.15;100.00
41830;BME280;38614;43.472;23.936;2023-05-12T14:16:52;100638.47;;;16.47;100.00
41830;BME280;38614;43.472;23.936;2023-05-12T14:19:40;100643.66;;;16.45;100.00
41830;BME280;38614;43.472;23.936;2023-05-12T14:22:28;100618.25;;;16.09;100.00
41830;BME280;38614;43.472;23.936;2023-05-12T14:25:16;100647.53;;;16.30;100.00
41830;BME280;38614;43.472;23.936;2023-05-12T14:28:04;100640.69;;;16.23;100.00